OAL942 LGAL-LGST
Flight info
| Callsign | OAL942 |
|---|---|
| Flight time | 1h 2m |
| Altitude | 29000 |
| Route | LMO DCT MES DCT ASTIS DCT INKAB DCT OSKIM |
| Aircraft | A319/M-SDE3FGHIRWY/LB1 |
Departure
| Time | 2026-04-18 12:51 |
|---|---|
| Airport | Alexandroupoli Democritus Airport (LGAL) |
Arrival
| Time | 2026-04-18 13:53 |
|---|---|
| Airport | Sitia Airport (LGST) |
| Time | Latitude | Longitude | Altitude | Speed | Heading |
|---|---|---|---|---|---|
| 2026-04-18 12:47 | 40.85576 | 25.94515 | 24 ft | 0 kts | 73° |
| 2026-04-18 12:49 | 40.85579 | 25.94540 | 24 ft | 7 kts | 91° |
| 2026-04-18 12:50 | 40.85548 | 25.94670 | 24 ft | 21 kts | 115° |
| 2026-04-18 12:50 | 40.85446 | 25.94943 | 21 ft | 55 kts | 105° |
| 2026-04-18 12:50 | 40.85597 | 25.95692 | 24 ft | 117 kts | 73° |
| 2026-04-18 12:50 | 40.85907 | 25.96934 | 170 ft | 156 kts | 66° |
| 2026-04-18 12:51 | 40.86256 | 25.98191 | 938 ft | 147 kts | 67° |
| 2026-04-18 12:51 | 40.86286 | 25.99534 | 1548 ft | 161 kts | 110° |
| 2026-04-18 12:51 | 40.85398 | 26.00519 | 2063 ft | 188 kts | 160° |
| 2026-04-18 12:51 | 40.84025 | 26.00333 | 2463 ft | 213 kts | 207° |
| 2026-04-18 12:52 | 40.82978 | 25.98937 | 2863 ft | 225 kts | 250° |
| 2026-04-18 12:52 | 40.82536 | 25.96913 | 3319 ft | 236 kts | 262° |
| 2026-04-18 12:52 | 40.82159 | 25.94775 | 3832 ft | 250 kts | 261° |
| 2026-04-18 12:52 | 40.81605 | 25.92514 | 4350 ft | 270 kts | 244° |
| 2026-04-18 12:53 | 40.80336 | 25.90593 | 4807 ft | 292 kts | 216° |
| 2026-04-18 12:53 | 40.78529 | 25.89215 | 5298 ft | 309 kts | 206° |
| 2026-04-18 12:53 | 40.76550 | 25.87948 | 5767 ft | 327 kts | 206° |
| 2026-04-18 12:53 | 40.74459 | 25.86566 | 6180 ft | 345 kts | 207° |
| 2026-04-18 12:54 | 40.72270 | 25.85027 | 6583 ft | 364 kts | 209° |
| 2026-04-18 12:54 | 40.70011 | 25.83370 | 6975 ft | 380 kts | 210° |
| 2026-04-18 12:54 | 40.67709 | 25.81642 | 7667 ft | 385 kts | 211° |
| 2026-04-18 12:54 | 40.65396 | 25.79896 | 8463 ft | 386 kts | 211° |
| 2026-04-18 12:55 | 40.63070 | 25.78136 | 9253 ft | 388 kts | 211° |
| 2026-04-18 12:55 | 40.60728 | 25.76365 | 10002 ft | 390 kts | 212° |
| 2026-04-18 12:55 | 40.58391 | 25.74599 | 10728 ft | 393 kts | 212° |
| 2026-04-18 12:55 | 40.56011 | 25.72795 | 11431 ft | 396 kts | 212° |
| 2026-04-18 12:56 | 40.53647 | 25.70970 | 12101 ft | 399 kts | 213° |
| 2026-04-18 12:56 | 40.51239 | 25.69099 | 12774 ft | 401 kts | 213° |
| 2026-04-18 12:56 | 40.48841 | 25.67239 | 13427 ft | 403 kts | 213° |
| 2026-04-18 12:56 | 40.46414 | 25.65360 | 14052 ft | 406 kts | 213° |
| 2026-04-18 12:57 | 40.44007 | 25.63498 | 14670 ft | 408 kts | 213° |
| 2026-04-18 12:57 | 40.41533 | 25.61588 | 15285 ft | 410 kts | 213° |
| 2026-04-18 12:57 | 40.39088 | 25.59705 | 15872 ft | 412 kts | 213° |
| 2026-04-18 12:57 | 40.36600 | 25.57788 | 16440 ft | 415 kts | 213° |
| 2026-04-18 12:58 | 40.34130 | 25.55888 | 16985 ft | 417 kts | 213° |
| 2026-04-18 12:58 | 40.31606 | 25.53948 | 17530 ft | 419 kts | 213° |
| 2026-04-18 12:58 | 40.29095 | 25.52020 | 18047 ft | 421 kts | 213° |
| 2026-04-18 12:58 | 40.26584 | 25.50093 | 18530 ft | 423 kts | 213° |
| 2026-04-18 12:59 | 40.24014 | 25.48124 | 19009 ft | 426 kts | 213° |
| 2026-04-18 12:59 | 40.21469 | 25.46176 | 19496 ft | 427 kts | 213° |
| 2026-04-18 12:59 | 40.18915 | 25.44222 | 19969 ft | 429 kts | 213° |
| 2026-04-18 12:59 | 40.16321 | 25.42238 | 20439 ft | 431 kts | 213° |
| 2026-04-18 13:00 | 40.13761 | 25.40285 | 20871 ft | 432 kts | 213° |
| 2026-04-18 13:00 | 40.11167 | 25.38307 | 21295 ft | 434 kts | 213° |
| 2026-04-18 13:00 | 40.08566 | 25.36324 | 21701 ft | 436 kts | 213° |
| 2026-04-18 13:00 | 40.05935 | 25.34321 | 22112 ft | 438 kts | 213° |
| 2026-04-18 13:01 | 40.03310 | 25.32326 | 22495 ft | 440 kts | 213° |
| 2026-04-18 13:01 | 40.00643 | 25.30299 | 22880 ft | 442 kts | 213° |
| 2026-04-18 13:01 | 39.97969 | 25.28269 | 23257 ft | 444 kts | 213° |
| 2026-04-18 13:01 | 39.95284 | 25.26279 | 23629 ft | 447 kts | 209° |
| 2026-04-18 13:02 | 39.92323 | 25.25017 | 23933 ft | 457 kts | 192° |
| 2026-04-18 13:02 | 39.89117 | 25.24955 | 24314 ft | 464 kts | 174° |
| 2026-04-18 13:02 | 39.85972 | 25.26001 | 24724 ft | 467 kts | 165° |
| 2026-04-18 13:02 | 39.82898 | 25.27288 | 25046 ft | 469 kts | 164° |
| 2026-04-18 13:03 | 39.79762 | 25.28607 | 25316 ft | 472 kts | 165° |
| 2026-04-18 13:03 | 39.73448 | 25.31015 | 25870 ft | 474 kts | 171° |
| 2026-04-18 13:03 | 39.70198 | 25.31787 | 26139 ft | 474 kts | 173° |
| 2026-04-18 13:04 | 39.66980 | 25.32471 | 26383 ft | 476 kts | 174° |
| 2026-04-18 13:04 | 39.63685 | 25.33174 | 26622 ft | 478 kts | 173° |
| 2026-04-18 13:04 | 39.60432 | 25.33889 | 26875 ft | 479 kts | 173° |
| 2026-04-18 13:04 | 39.57135 | 25.34635 | 27109 ft | 480 kts | 173° |
| 2026-04-18 13:05 | 39.53822 | 25.35398 | 27320 ft | 482 kts | 173° |
| 2026-04-18 13:05 | 39.50536 | 25.36163 | 27534 ft | 483 kts | 173° |
| 2026-04-18 13:05 | 39.47221 | 25.36940 | 27736 ft | 484 kts | 173° |
| 2026-04-18 13:05 | 39.43944 | 25.37711 | 27933 ft | 485 kts | 173° |
| 2026-04-18 13:06 | 39.40603 | 25.38497 | 28122 ft | 486 kts | 173° |
| 2026-04-18 13:06 | 39.37309 | 25.39272 | 28283 ft | 487 kts | 173° |
| 2026-04-18 13:06 | 39.33951 | 25.40061 | 28446 ft | 488 kts | 173° |
| 2026-04-18 13:06 | 39.30600 | 25.40848 | 28607 ft | 489 kts | 173° |
| 2026-04-18 13:07 | 39.27295 | 25.41626 | 28738 ft | 490 kts | 173° |
| 2026-04-18 13:07 | 39.23943 | 25.42413 | 28880 ft | 490 kts | 173° |
| 2026-04-18 13:07 | 39.17225 | 25.43987 | 28921 ft | 489 kts | 173° |
| 2026-04-18 13:08 | 39.10531 | 25.45553 | 28923 ft | 489 kts | 173° |
| 2026-04-18 13:08 | 39.03870 | 25.47107 | 28913 ft | 488 kts | 173° |
| 2026-04-18 13:09 | 38.97188 | 25.48664 | 28912 ft | 488 kts | 173° |
| 2026-04-18 13:09 | 38.90510 | 25.50218 | 28912 ft | 488 kts | 173° |
| 2026-04-18 13:10 | 38.83838 | 25.51765 | 28903 ft | 489 kts | 173° |
| 2026-04-18 13:10 | 38.77110 | 25.53325 | 28897 ft | 489 kts | 173° |
| 2026-04-18 13:11 | 38.70448 | 25.54866 | 28893 ft | 489 kts | 173° |
| 2026-04-18 13:11 | 38.63746 | 25.56413 | 28885 ft | 489 kts | 173° |
| 2026-04-18 13:12 | 38.57062 | 25.57953 | 28885 ft | 489 kts | 173° |
| 2026-04-18 13:12 | 38.50373 | 25.59491 | 28880 ft | 490 kts | 173° |
| 2026-04-18 13:13 | 38.43678 | 25.61026 | 28868 ft | 491 kts | 173° |
| 2026-04-18 13:13 | 38.36931 | 25.62570 | 28872 ft | 491 kts | 173° |
| 2026-04-18 13:14 | 38.30246 | 25.64100 | 28866 ft | 491 kts | 173° |
| 2026-04-18 13:14 | 38.23528 | 25.65635 | 28860 ft | 491 kts | 173° |
| 2026-04-18 13:15 | 38.16805 | 25.67167 | 28862 ft | 491 kts | 173° |
| 2026-04-18 13:15 | 38.10067 | 25.68697 | 28859 ft | 491 kts | 173° |
| 2026-04-18 13:16 | 38.03383 | 25.70214 | 28865 ft | 492 kts | 173° |
| 2026-04-18 13:16 | 37.96611 | 25.71748 | 28873 ft | 493 kts | 173° |
| 2026-04-18 13:17 | 37.89858 | 25.73275 | 28868 ft | 492 kts | 173° |
| 2026-04-18 13:17 | 37.83125 | 25.74795 | 28862 ft | 492 kts | 173° |
| 2026-04-18 13:18 | 37.76430 | 25.76303 | 28858 ft | 491 kts | 173° |
| 2026-04-18 13:18 | 37.69711 | 25.78172 | 28852 ft | 496 kts | 165° |
| 2026-04-18 13:19 | 37.63282 | 25.81191 | 28850 ft | 497 kts | 162° |
| 2026-04-18 13:19 | 37.56795 | 25.84322 | 28845 ft | 497 kts | 162° |
| 2026-04-18 13:20 | 37.50320 | 25.87355 | 28841 ft | 496 kts | 163° |
| 2026-04-18 13:20 | 37.43845 | 25.90337 | 28832 ft | 495 kts | 163° |
| 2026-04-18 13:21 | 37.37380 | 25.93295 | 28826 ft | 495 kts | 163° |
| 2026-04-18 13:21 | 37.30932 | 25.96235 | 28822 ft | 496 kts | 163° |
| 2026-04-18 13:22 | 37.24423 | 25.99198 | 28782 ft | 493 kts | 163° |
| 2026-04-18 13:22 | 37.21274 | 26.00635 | 28449 ft | 474 kts | 163° |
| 2026-04-18 13:22 | 37.18251 | 26.02013 | 27578 ft | 459 kts | 163° |
| 2026-04-18 13:23 | 37.15318 | 26.03347 | 26684 ft | 444 kts | 163° |
| 2026-04-18 13:23 | 37.12437 | 26.04653 | 25647 ft | 439 kts | 163° |
| 2026-04-18 13:23 | 37.09563 | 26.05952 | 24906 ft | 436 kts | 163° |
| 2026-04-18 13:23 | 37.06736 | 26.07232 | 24387 ft | 430 kts | 162° |
| 2026-04-18 13:24 | 37.03957 | 26.08489 | 23870 ft | 425 kts | 162° |
| 2026-04-18 13:24 | 37.01177 | 26.09746 | 23280 ft | 423 kts | 162° |
| 2026-04-18 13:24 | 36.98420 | 26.10991 | 22685 ft | 420 kts | 162° |
| 2026-04-18 13:24 | 36.95690 | 26.12222 | 22117 ft | 417 kts | 162° |
| 2026-04-18 13:25 | 36.92985 | 26.13442 | 21563 ft | 415 kts | 162° |
| 2026-04-18 13:25 | 36.90285 | 26.14658 | 21025 ft | 412 kts | 162° |
| 2026-04-18 13:25 | 36.87610 | 26.15862 | 20492 ft | 409 kts | 162° |
| 2026-04-18 13:25 | 36.84936 | 26.17066 | 19965 ft | 406 kts | 161° |
| 2026-04-18 13:26 | 36.82280 | 26.18261 | 19446 ft | 404 kts | 161° |
| 2026-04-18 13:26 | 36.79672 | 26.19433 | 18937 ft | 401 kts | 161° |
| 2026-04-18 13:26 | 36.77062 | 26.20605 | 18440 ft | 399 kts | 161° |
| 2026-04-18 13:26 | 36.74434 | 26.21784 | 17940 ft | 396 kts | 161° |
| 2026-04-18 13:27 | 36.71858 | 26.22940 | 17468 ft | 394 kts | 161° |
| 2026-04-18 13:27 | 36.69294 | 26.24090 | 16992 ft | 391 kts | 161° |
| 2026-04-18 13:27 | 36.66758 | 26.25227 | 16517 ft | 389 kts | 161° |
| 2026-04-18 13:27 | 36.64208 | 26.26367 | 16044 ft | 387 kts | 161° |
| 2026-04-18 13:28 | 36.61701 | 26.27489 | 15575 ft | 385 kts | 161° |
| 2026-04-18 13:28 | 36.59167 | 26.28621 | 15111 ft | 383 kts | 161° |
| 2026-04-18 13:28 | 36.56657 | 26.29742 | 14646 ft | 381 kts | 161° |
| 2026-04-18 13:28 | 36.54184 | 26.30844 | 14192 ft | 379 kts | 161° |
| 2026-04-18 13:29 | 36.51709 | 26.31948 | 13731 ft | 378 kts | 161° |
| 2026-04-18 13:29 | 36.49243 | 26.33046 | 13273 ft | 376 kts | 160° |
| 2026-04-18 13:29 | 36.46778 | 26.34143 | 12801 ft | 374 kts | 160° |
| 2026-04-18 13:29 | 36.44361 | 26.35218 | 12340 ft | 372 kts | 160° |
| 2026-04-18 13:30 | 36.41922 | 26.36303 | 11867 ft | 369 kts | 160° |
| 2026-04-18 13:30 | 36.39525 | 26.37369 | 11403 ft | 367 kts | 160° |
| 2026-04-18 13:30 | 36.37112 | 26.38441 | 11015 ft | 362 kts | 160° |
| 2026-04-18 13:30 | 36.34770 | 26.39481 | 10678 ft | 356 kts | 160° |
| 2026-04-18 13:31 | 36.32468 | 26.40503 | 10341 ft | 350 kts | 160° |
| 2026-04-18 13:31 | 36.30197 | 26.41511 | 9997 ft | 345 kts | 160° |
| 2026-04-18 13:31 | 36.27942 | 26.42510 | 9650 ft | 338 kts | 160° |
| 2026-04-18 13:31 | 36.25765 | 26.43475 | 9207 ft | 331 kts | 160° |
| 2026-04-18 13:32 | 36.23607 | 26.44431 | 8835 ft | 321 kts | 160° |
| 2026-04-18 13:32 | 36.21532 | 26.45349 | 8398 ft | 315 kts | 159° |
| 2026-04-18 13:32 | 36.19499 | 26.46248 | 7956 ft | 310 kts | 159° |
| 2026-04-18 13:32 | 36.17462 | 26.47148 | 7496 ft | 306 kts | 159° |
| 2026-04-18 13:33 | 36.15480 | 26.48023 | 6997 ft | 304 kts | 159° |
| 2026-04-18 13:33 | 36.13506 | 26.48895 | 6547 ft | 300 kts | 159° |
| 2026-04-18 13:33 | 36.11549 | 26.49759 | 6176 ft | 293 kts | 159° |
| 2026-04-18 13:33 | 36.09656 | 26.50595 | 5848 ft | 287 kts | 159° |
| 2026-04-18 13:34 | 36.07797 | 26.51414 | 5530 ft | 281 kts | 159° |
| 2026-04-18 13:34 | 36.05971 | 26.52220 | 5221 ft | 278 kts | 159° |
| 2026-04-18 13:34 | 36.04160 | 26.53019 | 4917 ft | 275 kts | 159° |
| 2026-04-18 13:34 | 36.02377 | 26.53806 | 4619 ft | 273 kts | 160° |
| 2026-04-18 13:35 | 36.00577 | 26.54600 | 4324 ft | 271 kts | 160° |
| 2026-04-18 13:35 | 35.98856 | 26.55355 | 4270 ft | 255 kts | 160° |
| 2026-04-18 13:35 | 35.97209 | 26.56078 | 4258 ft | 252 kts | 160° |
| 2026-04-18 13:35 | 35.95565 | 26.56800 | 4220 ft | 241 kts | 160° |
| 2026-04-18 13:36 | 35.94032 | 26.57474 | 4180 ft | 230 kts | 160° |
| 2026-04-18 13:36 | 35.92523 | 26.58136 | 4127 ft | 230 kts | 160° |
| 2026-04-18 13:36 | 35.91008 | 26.58802 | 4007 ft | 229 kts | 160° |
| 2026-04-18 13:36 | 35.89520 | 26.59457 | 3873 ft | 228 kts | 160° |
| 2026-04-18 13:37 | 35.88014 | 26.60118 | 3614 ft | 232 kts | 160° |
| 2026-04-18 13:37 | 35.86488 | 26.60785 | 3299 ft | 233 kts | 160° |
| 2026-04-18 13:37 | 35.84964 | 26.61438 | 3019 ft | 233 kts | 165° |
| 2026-04-18 13:37 | 35.83400 | 26.61466 | 2917 ft | 217 kts | 208° |
| 2026-04-18 13:38 | 35.82188 | 26.60447 | 2962 ft | 210 kts | 229° |
| 2026-04-18 13:38 | 35.81115 | 26.59240 | 2955 ft | 210 kts | 228° |
| 2026-04-18 13:38 | 35.79999 | 26.58085 | 2952 ft | 211 kts | 224° |
| 2026-04-18 13:38 | 35.78818 | 26.56990 | 2951 ft | 211 kts | 222° |
| 2026-04-18 13:39 | 35.77610 | 26.55947 | 2948 ft | 212 kts | 220° |
| 2026-04-18 13:39 | 35.76389 | 26.54928 | 2946 ft | 212 kts | 220° |
| 2026-04-18 13:39 | 35.75171 | 26.53931 | 2942 ft | 212 kts | 220° |
| 2026-04-18 13:39 | 35.73933 | 26.52932 | 2939 ft | 212 kts | 219° |
| 2026-04-18 13:40 | 35.72658 | 26.51969 | 2941 ft | 215 kts | 212° |
| 2026-04-18 13:40 | 35.71280 | 26.51223 | 2951 ft | 217 kts | 207° |
| 2026-04-18 13:40 | 35.69873 | 26.50556 | 2952 ft | 218 kts | 203° |
| 2026-04-18 13:40 | 35.68372 | 26.50183 | 2949 ft | 222 kts | 187° |
| 2026-04-18 13:41 | 35.66810 | 26.50133 | 2952 ft | 224 kts | 182° |
| 2026-04-18 13:41 | 35.65261 | 26.50132 | 2951 ft | 223 kts | 183° |
| 2026-04-18 13:41 | 35.63713 | 26.50101 | 2951 ft | 223 kts | 184° |
| 2026-04-18 13:41 | 35.62161 | 26.50036 | 2956 ft | 222 kts | 185° |
| 2026-04-18 13:42 | 35.60604 | 26.49949 | 2956 ft | 222 kts | 186° |
| 2026-04-18 13:42 | 35.59061 | 26.49849 | 2956 ft | 222 kts | 186° |
| 2026-04-18 13:42 | 35.57503 | 26.49744 | 2955 ft | 222 kts | 186° |
| 2026-04-18 13:42 | 35.55949 | 26.49638 | 2952 ft | 222 kts | 186° |
| 2026-04-18 13:43 | 35.54404 | 26.49532 | 2950 ft | 222 kts | 186° |
| 2026-04-18 13:43 | 35.52860 | 26.49425 | 2952 ft | 222 kts | 187° |
| 2026-04-18 13:43 | 35.51319 | 26.49319 | 2953 ft | 222 kts | 186° |
| 2026-04-18 13:43 | 35.49771 | 26.49133 | 2943 ft | 219 kts | 201° |
| 2026-04-18 13:44 | 35.48539 | 26.48194 | 2945 ft | 205 kts | 236° |
| 2026-04-18 13:44 | 35.47681 | 26.46828 | 2957 ft | 202 kts | 242° |
| 2026-04-18 13:44 | 35.46864 | 26.45424 | 2951 ft | 203 kts | 241° |
| 2026-04-18 13:44 | 35.46009 | 26.44052 | 2949 ft | 204 kts | 238° |
| 2026-04-18 13:45 | 35.45101 | 26.42690 | 2946 ft | 204 kts | 237° |
| 2026-04-18 13:45 | 35.44183 | 26.41370 | 2942 ft | 204 kts | 236° |
| 2026-04-18 13:45 | 35.43253 | 26.40065 | 2942 ft | 205 kts | 236° |
| 2026-04-18 13:45 | 35.42305 | 26.38752 | 2943 ft | 205 kts | 236° |
| 2026-04-18 13:46 | 35.41356 | 26.37447 | 2940 ft | 205 kts | 236° |
| 2026-04-18 13:46 | 35.40399 | 26.36133 | 2943 ft | 205 kts | 235° |
| 2026-04-18 13:46 | 35.39454 | 26.34840 | 2947 ft | 205 kts | 235° |
| 2026-04-18 13:46 | 35.38502 | 26.33540 | 2959 ft | 203 kts | 235° |
| 2026-04-18 13:47 | 35.37591 | 26.32306 | 2988 ft | 186 kts | 236° |
| 2026-04-18 13:47 | 35.36763 | 26.31188 | 2936 ft | 170 kts | 236° |
| 2026-04-18 13:47 | 35.35991 | 26.30139 | 2932 ft | 164 kts | 237° |
| 2026-04-18 13:47 | 35.35232 | 26.29092 | 2941 ft | 164 kts | 237° |
| 2026-04-18 13:48 | 35.34484 | 26.28046 | 2948 ft | 164 kts | 238° |
| 2026-04-18 13:48 | 35.33733 | 26.26992 | 2952 ft | 164 kts | 238° |
| 2026-04-18 13:48 | 35.32984 | 26.25942 | 2976 ft | 164 kts | 238° |
| 2026-04-18 13:48 | 35.32233 | 26.24891 | 2962 ft | 164 kts | 238° |
| 2026-04-18 13:49 | 35.31482 | 26.23843 | 2954 ft | 163 kts | 238° |
| 2026-04-18 13:49 | 35.30745 | 26.22824 | 2721 ft | 152 kts | 238° |
| 2026-04-18 13:49 | 35.30067 | 26.21884 | 2503 ft | 146 kts | 238° |
| 2026-04-18 13:49 | 35.29401 | 26.20954 | 2363 ft | 145 kts | 238° |
| 2026-04-18 13:50 | 35.28731 | 26.20035 | 2362 ft | 146 kts | 237° |
| 2026-04-18 13:50 | 35.27987 | 26.19138 | 1958 ft | 158 kts | 224° |
| 2026-04-18 13:50 | 35.27111 | 26.18373 | 1743 ft | 149 kts | 227° |
| 2026-04-18 13:50 | 35.26335 | 26.17532 | 1664 ft | 148 kts | 234° |
| 2026-04-18 13:51 | 35.25614 | 26.16632 | 1431 ft | 146 kts | 236° |
| 2026-04-18 13:51 | 35.24954 | 26.15706 | 1236 ft | 145 kts | 237° |
| 2026-04-18 13:51 | 35.24309 | 26.14744 | 1110 ft | 145 kts | 240° |
| 2026-04-18 13:51 | 35.23721 | 26.13748 | 951 ft | 146 kts | 242° |
| 2026-04-18 13:52 | 35.23153 | 26.12709 | 569 ft | 148 kts | 242° |
| 2026-04-18 13:52 | 35.22591 | 26.11709 | 420 ft | 143 kts | 244° |
| 2026-04-18 13:52 | 35.22008 | 26.10711 | 314 ft | 142 kts | 237° |
| 2026-04-18 13:52 | 35.21519 | 26.09978 | 354 ft | 69 kts | 233° |
| 2026-04-18 13:53 | 35.21397 | 26.09803 | 360 ft | 0 kts | 231° |
| 2026-04-18 13:53 | 35.21353 | 26.09759 | 362 ft | 11 kts | 274° |
| 2026-04-18 13:53 | 35.21407 | 26.09791 | 360 ft | 13 kts | 34° |
| 2026-04-18 13:54 | 35.21506 | 26.09807 | 357 ft | 15 kts | 338° |
| 2026-04-18 13:54 | 35.21585 | 26.09765 | 354 ft | 6 kts | 2° |
| 2026-04-18 13:54 | 35.21602 | 26.09766 | 353 ft | 0 kts | 2° |